Time;durP1;ratioP1;P1;durP2;ratioP2;P2;SDS_P1;SDS_P2;PMS_P1;PMS_P2;Temp;Humidity;BMP_temperature;BMP_pressure;BME280_temperature;BME280_humidity;BME280_pressure;Samples;Min_cycle;Max_cycle;Signal;HPM_P1;HPM_P2
2022/10/16 00:01:37;;;;;;;59.00;35.33;;;9.10;99.90;;;;;;5045835;28;20516;-73
2022/10/16 00:04:05;;;;;;;48.47;31.52;;;9.00;99.90;;;;;;5042867;28;20044;-73
2022/10/16 00:06:32;;;;;;;52.72;31.75;;;9.00;99.90;;;;;;5035818;28;20052;-72
2022/10/16 00:09:00;;;;;;;55.17;34.92;;;9.00;99.90;;;;;;5034916;28;20037;-73
2022/10/16 00:11:30;;;;;;;53.47;33.75;;;9.10;99.90;;;;;;5035465;28;20412;-74
2022/10/16 00:13:59;;;;;;;53.13;33.92;;;9.00;99.90;;;;;;5034507;28;20057;-73
2022/10/16 00:16:27;;;;;;;54.10;33.65;;;9.00;99.90;;;;;;5033858;28;20120;-74
2022/10/16 00:18:56;;;;;;;51.22;31.52;;;9.00;99.90;;;;;;5033343;28;20061;-73
2022/10/16 00:21:25;;;;;;;59.60;29.17;;;8.90;99.90;;;;;;5032818;28;20042;-73
2022/10/16 00:23:53;;;;;;;47.15;26.58;;;8.90;99.90;;;;;;5031798;28;20132;-72
2022/10/16 00:26:21;;;;;;;45.00;27.38;;;8.90;99.90;;;;;;5033484;28;20050;-72
2022/10/16 00:28:49;;;;;;;50.88;30.90;;;8.80;99.90;;;;;;5032865;28;20091;-73
2022/10/16 00:31:18;;;;;;;47.60;28.13;;;8.80;99.90;;;;;;5038682;28;20420;-71
2022/10/16 00:33:45;;;;;;;41.67;26.75;;;8.80;99.90;;;;;;5036900;28;20080;-73
2022/10/16 00:36:16;;;;;;;41.63;26.90;;;8.80;99.90;;;;;;5033719;28;20045;-73
2022/10/16 00:38:43;;;;;;;45.15;25.85;;;8.80;99.90;;;;;;5035245;28;20046;-72
2022/10/16 00:41:12;;;;;;;42.38;27.02;;;8.80;99.90;;;;;;5032229;28;20072;-72
2022/10/16 00:43:42;;;;;;;57.15;37.42;;;8.80;99.90;;;;;;5032894;28;20113;-71
2022/10/16 00:46:16;;;;;;;33.00;22.90;;;8.70;99.90;;;;;;5033110;28;20515;-72
2022/10/16 00:48:49;;;;;;;41.00;25.20;;;8.80;99.90;;;;;;5033205;28;20532;-73
2022/10/16 00:51:20;;;;;;;40.25;25.20;;;8.80;99.90;;;;;;5035131;28;20073;-74
2022/10/16 00:53:47;;;;;;;37.58;26.08;;;8.80;99.90;;;;;;5035672;28;20045;-72
2022/10/16 00:56:15;;;;;;;39.88;26.45;;;8.70;99.90;;;;;;5037434;28;20041;-72
2022/10/16 00:58:42;;;;;;;46.15;28.35;;;8.70;99.90;;;;;;5037095;28;20072;-73
2022/10/16 01:01:09;;;;;;;43.50;26.60;;;8.70;99.90;;;;;;5036828;28;20087;-73
2022/10/16 01:03:38;;;;;;;41.28;24.42;;;8.70;99.90;;;;;;5035008;28;20053;-73
2022/10/16 01:06:24;;;;;;;38.10;21.60;;;8.80;99.90;;;;;;5037032;28;20052;-72
2022/10/16 01:09:04;;;;;;;35.35;21.00;;;8.70;99.90;;;;;;5035992;28;20217;-73
2022/10/16 01:11:39;;;;;;;32.95;21.63;;;8.70;99.90;;;;;;5037108;28;20469;-72
2022/10/16 01:14:13;;;;;;;30.73;20.35;;;8.60;99.90;;;;;;5036597;28;20488;-72
2022/10/16 01:16:48;;;;;;;32.38;19.20;;;8.60;99.90;;;;;;5035744;28;20476;-72
2022/10/16 01:19:21;;;;;;;29.30;18.80;;;8.60;99.90;;;;;;5036602;28;20033;-72
2022/10/16 01:21:54;;;;;;;27.65;17.88;;;8.70;99.90;;;;;;5035564;28;20463;-73
2022/10/16 01:24:32;;;;;;;27.90;18.35;;;8.70;99.90;;;;;;5036898;28;20045;-72
2022/10/16 01:27:08;;;;;;;34.95;20.42;;;8.70;99.90;;;;;;5036842;28;20510;-73
2022/10/16 01:29:41;;;;;;;32.50;20.80;;;8.70;99.90;;;;;;5032113;28;20049;-72
2022/10/16 01:32:16;;;;;;;33.70;20.20;;;8.70;99.90;;;;;;5033838;28;20037;-73
2022/10/16 01:34:50;;;;;;;35.40;20.20;;;8.70;99.90;;;;;;5038771;28;20037;-73
2022/10/16 01:37:26;;;;;;;38.83;22.92;;;8.60;99.90;;;;;;5037958;28;20125;-71
2022/10/16 01:40:00;;;;;;;36.75;23.15;;;8.60;99.90;;;;;;5033487;28;20064;-71
2022/10/16 01:42:34;;;;;;;41.85;23.80;;;8.60;99.90;;;;;;5035068;28;20044;-72
2022/10/16 01:45:03;;;;;;;38.30;22.88;;;8.60;99.90;;;;;;5035817;28;20046;-72
2022/10/16 01:47:32;;;;;;;44.95;24.00;;;8.50;99.90;;;;;;5028880;28;20419;-72
2022/10/16 01:50:04;;;;;;;36.30;21.50;;;8.50;99.90;;;;;;5034898;28;20081;-72
2022/10/16 01:52:35;;;;;;;36.95;21.95;;;8.50;99.90;;;;;;5035257;28;20382;-72
2022/10/16 01:55:05;;;;;;;34.05;21.30;;;8.50;99.90;;;;;;5034201;28;20057;-73
2022/10/16 01:57:37;;;;;;;35.58;23.60;;;8.50;99.90;;;;;;5028138;28;20053;-71
2022/10/16 02:00:09;;;;;;;35.70;23.17;;;8.40;99.90;;;;;;5035466;28;20037;-73
2022/10/16 02:02:42;;;;;;;34.97;23.60;;;8.40;99.90;;;;;;5034947;28;20052;-72
2022/10/16 02:05:15;;;;;;;39.70;23.63;;;8.40;99.90;;;;;;5035729;28;20053;-73
2022/10/16 02:07:43;;;;;;;34.22;21.75;;;8.40;99.90;;;;;;5036359;28;20404;-72
2022/10/16 02:10:12;;;;;;;30.80;20.25;;;8.40;99.90;;;;;;5036369;28;20053;-73
2022/10/16 02:12:46;;;;;;;32.03;19.27;;;8.40;99.90;;;;;;5035870;28;20041;-73
2022/10/16 02:15:13;;;;;;;35.67;22.13;;;8.40;99.90;;;;;;5035200;28;20392;-73
2022/10/16 02:17:40;;;;;;;33.03;21.33;;;8.40;99.90;;;;;;5035816;28;20041;-72
2022/10/16 02:20:08;;;;;;;31.85;20.23;;;8.30;99.90;;;;;;5034818;28;20053;-73
2022/10/16 02:22:40;;;;;;;30.48;18.83;;;8.30;99.90;;;;;;5035349;28;20072;-72
2022/10/16 02:25:11;;;;;;;28.50;18.85;;;8.30;99.90;;;;;;5034944;28;20377;-71
2022/10/16 02:27:49;;;;;;;33.33;19.67;;;8.20;99.90;;;;;;5035279;28;20068;-73
2022/10/16 02:30:21;;;;;;;27.30;18.48;;;8.20;99.90;;;;;;5035910;28;20049;-73
2022/10/16 02:32:50;;;;;;;29.55;18.77;;;8.20;99.90;;;;;;5034376;28;20412;-73
2022/10/16 02:35:19;;;;;;;31.70;18.90;;;8.20;99.90;;;;;;5034447;28;20103;-72
2022/10/16 02:37:48;;;;;;;30.67;19.80;;;8.10;99.90;;;;;;5035232;28;20076;-72
2022/10/16 02:40:16;;;;;;;30.40;20.20;;;8.10;99.90;;;;;;5034367;28;20544;-73
2022/10/16 02:42:45;;;;;;;31.65;20.55;;;8.10;99.90;;;;;;5034472;28;20068;-73
2022/10/16 02:45:12;;;;;;;34.13;21.75;;;8.10;99.90;;;;;;5033865;28;20567;-73
2022/10/16 02:47:39;;;;;;;32.33;20.45;;;8.20;99.90;;;;;;5035086;28;20041;-72
2022/10/16 02:50:07;;;;;;;34.42;22.10;;;8.20;99.90;;;;;;5034729;28;20069;-72
2022/10/16 02:52:35;;;;;;;38.03;23.83;;;8.20;99.90;;;;;;5033877;28;20531;-70
2022/10/16 02:55:02;;;;;;;39.72;23.27;;;8.10;99.90;;;;;;5033860;28;20550;-71
2022/10/16 02:57:29;;;;;;;37.65;22.90;;;8.00;99.90;;;;;;5035279;28;20602;-72
2022/10/16 02:59:58;;;;;;;37.22;21.33;;;8.00;99.90;;;;;;5034526;28;20057;-72
2022/10/16 03:02:26;;;;;;;33.10;21.23;;;8.10;99.90;;;;;;5033348;28;20049;-70
2022/10/16 03:04:53;;;;;;;34.63;22.10;;;8.00;99.90;;;;;;5034519;28;20076;-72
2022/10/16 03:07:21;;;;;;;35.38;21.63;;;8.10;99.90;;;;;;5035504;28;20041;-72
2022/10/16 03:09:48;;;;;;;37.60;23.55;;;8.10;99.90;;;;;;5039235;28;20116;-73
2022/10/16 03:12:15;;;;;;;35.58;22.02;;;8.10;99.90;;;;;;5034351;28;20045;-73
2022/10/16 03:14:43;;;;;;;30.17;20.33;;;8.00;99.90;;;;;;5034351;28;20440;-72
2022/10/16 03:17:12;;;;;;;28.70;20.35;;;8.00;99.90;;;;;;5034417;28;20049;-71
2022/10/16 03:19:40;;;;;;;35.95;19.88;;;8.00;99.90;;;;;;5033657;28;20052;-71
2022/10/16 03:22:07;;;;;;;34.75;22.85;;;7.90;99.90;;;;;;5034709;28;20045;-72
2022/10/16 03:24:34;;;;;;;36.60;21.80;;;7.90;99.90;;;;;;5033409;28;20079;-72
2022/10/16 03:27:02;;;;;;;36.78;21.83;;;7.90;99.90;;;;;;5034356;28;20033;-73
2022/10/16 03:29:29;;;;;;;35.15;22.42;;;7.80;99.90;;;;;;5033284;28;20091;-72
2022/10/16 03:31:57;;;;;;;31.50;21.77;;;7.80;99.90;;;;;;5032823;28;20060;-72
2022/10/16 03:34:25;;;;;;;28.38;20.35;;;7.80;99.90;;;;;;5033778;28;20041;-74
2022/10/16 03:36:53;;;;;;;31.20;20.98;;;7.80;99.90;;;;;;5034552;28;20435;-73
2022/10/16 03:39:20;;;;;;;34.38;22.20;;;7.80;99.90;;;;;;5034018;28;20106;-73
2022/10/16 03:41:48;;;;;;;42.80;27.38;;;7.70;99.90;;;;;;5033170;28;20438;-72
2022/10/16 03:44:15;;;;;;;41.80;26.88;;;7.70;99.90;;;;;;5032530;28;20064;-73
2022/10/16 03:46:42;;;;;;;40.20;23.55;;;7.70;99.90;;;;;;5034409;28;20049;-72
2022/10/16 03:49:10;;;;;;;34.83;23.67;;;7.70;99.90;;;;;;5034171;28;20069;-73
2022/10/16 03:51:38;;;;;;;40.10;22.55;;;7.70;99.90;;;;;;5033810;28;20052;-73
2022/10/16 03:54:06;;;;;;;32.42;21.17;;;7.80;99.90;;;;;;5031821;28;20041;-72
2022/10/16 03:56:33;;;;;;;28.38;18.83;;;7.80;99.90;;;;;;5033968;28;20042;-72
2022/10/16 03:59:00;;;;;;;27.35;18.45;;;7.80;99.90;;;;;;5034153;28;20088;-72
2022/10/16 04:01:27;;;;;;;31.65;19.33;;;7.70;99.90;;;;;;5033994;28;20048;-73
2022/10/16 04:03:55;;;;;;;33.78;21.40;;;7.70;99.90;;;;;;5032174;28;20041;-73
2022/10/16 04:06:22;;;;;;;35.60;23.77;;;7.70;99.90;;;;;;5033839;28;20111;-74
2022/10/16 04:08:51;;;;;;;34.05;22.77;;;7.60;99.90;;;;;;5036804;28;20049;-73
2022/10/16 04:11:18;;;;;;;37.10;23.30;;;7.60;99.90;;;;;;5037053;28;20073;-73
2022/10/16 04:13:45;;;;;;;34.17;23.80;;;7.60;99.90;;;;;;5033801;28;20088;-70
2022/10/16 04:16:13;;;;;;;54.55;36.55;;;7.60;99.90;;;;;;5037118;28;20033;-70
2022/10/16 04:18:40;;;;;;;54.72;38.17;;;7.70;99.90;;;;;;5037050;28;20050;-70
2022/10/16 04:21:08;;;;;;;37.97;24.48;;;7.70;99.90;;;;;;5037839;28;20050;-70
2022/10/16 04:23:35;;;;;;;39.45;20.58;;;7.70;99.90;;;;;;5037704;28;20049;-69
2022/10/16 04:26:04;;;;;;;30.20;19.42;;;7.70;99.90;;;;;;5039081;28;20073;-70
2022/10/16 04:28:31;;;;;;;30.95;19.08;;;7.70;99.90;;;;;;5036576;28;20041;-70
2022/10/16 04:30:59;;;;;;;26.80;16.55;;;7.60;99.90;;;;;;5036417;28;20054;-69
2022/10/16 04:33:26;;;;;;;26.73;17.52;;;7.60;99.90;;;;;;5038079;28;20115;-71
2022/10/16 04:35:58;;;;;;;32.53;19.92;;;7.60;99.90;;;;;;5035222;28;20038;-70
2022/10/16 04:38:25;;;;;;;32.28;20.88;;;7.60;99.90;;;;;;5035383;28;20084;-70
2022/10/16 04:40:53;;;;;;;32.55;21.63;;;7.60;99.90;;;;;;5032632;28;20042;-69
2022/10/16 04:43:22;;;;;;;35.55;22.42;;;7.60;99.90;;;;;;5033505;28;20087;-69
2022/10/16 04:45:50;;;;;;;38.22;22.95;;;7.50;99.90;;;;;;5030333;28;20067;-72
2022/10/16 04:48:18;;;;;;;35.80;23.35;;;7.50;99.90;;;;;;5033196;28;20041;-69
2022/10/16 04:50:45;;;;;;;36.45;23.67;;;7.50;99.90;;;;;;5033431;28;20049;-69
2022/10/16 04:53:12;;;;;;;35.63;24.58;;;7.40;99.90;;;;;;5033621;28;20045;-68
2022/10/16 04:55:41;;;;;;;40.95;23.65;;;7.30;99.90;;;;;;5044629;28;20044;-69
2022/10/16 04:58:08;;;;;;;34.22;22.30;;;7.30;99.90;;;;;;5046746;28;20045;-69
2022/10/16 05:00:38;;;;;;;30.95;20.63;;;7.40;99.90;;;;;;5044192;28;20136;-69
2022/10/16 05:03:08;;;;;;;41.13;23.85;;;7.50;99.90;;;;;;5042565;28;20057;-69
2022/10/16 05:05:35;;;;;;;40.72;26.98;;;7.50;99.90;;;;;;5026557;28;20088;-70
2022/10/16 05:08:03;;;;;;;50.65;36.20;;;7.50;99.90;;;;;;5025259;28;20096;-69
2022/10/16 05:10:31;;;;;;;54.67;36.65;;;7.50;99.90;;;;;;5023930;28;20112;-68
2022/10/16 05:12:58;;;;;;;51.08;34.67;;;7.40;99.90;;;;;;5034174;28;20049;-70
2022/10/16 05:15:25;;;;;;;51.35;31.48;;;7.40;99.90;;;;;;5043332;28;20072;-69
2022/10/16 05:17:56;;;;;;;40.67;29.13;;;7.40;99.90;;;;;;5038016;28;20497;-68
2022/10/16 05:20:24;;;;;;;38.50;25.15;;;7.50;99.90;;;;;;5036330;28;20060;-69
2022/10/16 05:22:51;;;;;;;29.42;21.52;;;7.50;99.90;;;;;;5034958;28;20060;-69
2022/10/16 05:25:19;;;;;;;37.08;25.33;;;7.50;99.90;;;;;;5036409;28;20558;-68
2022/10/16 05:27:48;;;;;;;37.25;26.30;;;7.50;99.90;;;;;;5036727;28;20503;-69
2022/10/16 05:30:16;;;;;;;37.22;24.85;;;7.50;99.90;;;;;;5034000;28;20045;-69
2022/10/16 05:32:46;;;;;;;33.60;23.10;;;7.50;99.90;;;;;;5034272;28;20096;-69
2022/10/16 05:35:15;;;;;;;35.40;21.55;;;7.50;99.90;;;;;;5035183;28;20493;-69
2022/10/16 05:37:43;;;;;;;31.35;21.55;;;7.60;99.90;;;;;;5036923;28;20072;-68
2022/10/16 05:40:11;;;;;;;30.90;20.50;;;7.50;99.90;;;;;;5039338;28;20041;-68
2022/10/16 05:42:38;;;;;;;32.17;21.42;;;7.60;99.90;;;;;;5039057;28;20041;-68
2022/10/16 05:45:07;;;;;;;36.33;20.80;;;7.60;99.90;;;;;;5033228;28;20038;-69
2022/10/16 05:47:35;;;;;;;41.65;22.17;;;7.60;99.90;;;;;;5037999;28;20582;-69
2022/10/16 05:50:03;;;;;;;34.90;20.40;;;7.70;99.90;;;;;;5037865;28;20041;-69
2022/10/16 05:52:32;;;;;;;32.83;20.10;;;7.70;99.90;;;;;;5029502;28;20045;-69
2022/10/16 05:54:59;;;;;;;33.55;20.65;;;7.80;99.90;;;;;;5035647;28;20473;-72
2022/10/16 05:57:27;;;;;;;37.15;21.00;;;7.90;99.90;;;;;;5034054;28;20072;-69
2022/10/16 05:59:54;;;;;;;35.88;20.70;;;8.00;99.90;;;;;;5035649;28;20092;-70
2022/10/16 06:02:21;;;;;;;31.15;19.40;;;8.10;99.90;;;;;;5036152;28;20059;-70
2022/10/16 06:04:49;;;;;;;31.13;20.90;;;8.20;99.90;;;;;;5036402;28;20442;-69
2022/10/16 06:07:16;;;;;;;32.40;19.17;;;8.40;99.90;;;;;;5036239;28;20058;-70
2022/10/16 06:09:45;;;;;;;29.70;19.33;;;8.40;99.90;;;;;;5037106;28;20064;-70
2022/10/16 06:12:12;;;;;;;38.35;20.13;;;8.50;99.90;;;;;;5037007;28;20096;-69
2022/10/16 06:14:39;;;;;;;36.33;18.77;;;8.50;99.90;;;;;;5036356;28;20064;-70
2022/10/16 06:17:06;;;;;;;31.20;19.05;;;8.70;99.90;;;;;;5036393;28;20045;-69
2022/10/16 06:19:34;;;;;;;29.20;18.10;;;8.90;99.90;;;;;;5035351;28;20168;-70
2022/10/16 06:22:02;;;;;;;24.45;16.77;;;9.00;99.90;;;;;;5037511;28;20171;-69
2022/10/16 06:24:29;;;;;;;29.83;17.20;;;9.30;99.90;;;;;;5036548;28;20041;-69
2022/10/16 06:26:58;;;;;;;24.10;17.27;;;9.50;99.90;;;;;;5033424;28;20046;-68
2022/10/16 06:29:25;;;;;;;32.55;20.08;;;9.70;99.90;;;;;;5035752;28;20046;-69
2022/10/16 06:31:52;;;;;;;33.97;19.80;;;10.00;99.90;;;;;;5036135;28;20142;-69
2022/10/16 06:34:20;;;;;;;35.75;19.70;;;10.20;99.90;;;;;;5034629;28;20472;-70
2022/10/16 06:36:47;;;;;;;28.88;20.50;;;10.50;99.90;;;;;;5034679;28;20080;-70
2022/10/16 06:39:14;;;;;;;28.83;19.70;;;10.60;99.90;;;;;;5034499;28;20117;-68
2022/10/16 06:41:42;;;;;;;35.42;20.33;;;10.90;99.90;;;;;;5035407;28;20412;-69
2022/10/16 06:44:17;;;;;;;35.88;20.77;;;11.10;99.90;;;;;;5033567;28;20390;-69
2022/10/16 06:46:44;;;;;;;27.35;19.15;;;11.20;99.90;;;;;;5031247;28;20558;-69
2022/10/16 06:49:12;;;;;;;31.13;19.52;;;11.30;99.90;;;;;;5037104;28;20109;-69
2022/10/16 06:51:40;;;;;;;28.67;20.42;;;11.50;99.90;;;;;;5035805;28;20045;-69
2022/10/16 06:54:08;;;;;;;30.92;21.38;;;11.70;99.90;;;;;;5035511;28;20091;-69
2022/10/16 06:56:35;;;;;;;31.45;22.67;;;11.90;99.90;;;;;;5034991;28;20096;-70
2022/10/16 06:59:04;;;;;;;33.45;22.40;;;12.00;99.90;;;;;;5035548;28;20065;-69
2022/10/16 07:01:33;;;;;;;30.58;21.75;;;12.00;99.90;;;;;;5034294;28;20041;-69
2022/10/16 07:04:01;;;;;;;32.45;21.13;;;12.20;99.90;;;;;;5034028;28;20046;-69
2022/10/16 07:06:32;;;;;;;34.00;21.80;;;12.30;99.90;;;;;;5035733;28;20045;-70
2022/10/16 07:09:03;;;;;;;33.92;22.08;;;12.50;99.90;;;;;;5035393;28;20095;-70
2022/10/16 07:11:31;;;;;;;27.92;19.77;;;12.60;99.90;;;;;;5034928;28;20045;-71
2022/10/16 07:13:58;;;;;;;32.35;21.27;;;12.70;99.90;;;;;;5033860;28;20115;-69
2022/10/16 07:16:28;;;;;;;29.73;20.42;;;12.90;99.90;;;;;;5032699;28;20056;-70
2022/10/16 07:18:58;;;;;;;31.20;20.80;;;13.20;99.90;;;;;;5032988;28;20080;-69
2022/10/16 07:21:28;;;;;;;35.85;20.92;;;13.40;99.90;;;;;;5035046;28;20045;-70
2022/10/16 07:23:57;;;;;;;27.90;19.58;;;13.70;99.90;;;;;;5034971;28;20045;-71
2022/10/16 07:26:25;;;;;;;28.63;19.50;;;13.80;99.90;;;;;;5029065;28;20068;-69
2022/10/16 07:28:52;;;;;;;31.65;19.30;;;14.10;99.90;;;;;;5034631;28;20053;-69
2022/10/16 07:31:21;;;;;;;31.30;17.50;;;14.20;99.90;;;;;;5036034;28;20071;-70
2022/10/16 07:33:49;;;;;;;28.27;17.77;;;14.30;99.90;;;;;;5035671;28;20416;-69
2022/10/16 07:36:19;;;;;;;24.98;16.23;;;14.30;99.90;;;;;;5034176;28;20129;-71
2022/10/16 07:38:47;;;;;;;30.98;15.23;;;14.40;99.90;;;;;;5033197;28;20049;-70
2022/10/16 07:41:16;;;;;;;19.92;14.60;;;14.50;99.90;;;;;;5034723;28;20081;-69
2022/10/16 07:43:47;;;;;;;25.92;14.45;;;14.60;99.90;;;;;;5033831;28;20041;-70
2022/10/16 07:46:14;;;;;;;19.83;13.75;;;14.70;99.90;;;;;;5034308;28;20381;-69
2022/10/16 07:48:50;;;;;;;21.27;14.15;;;14.90;99.90;;;;;;5034722;28;20121;-69
2022/10/16 07:51:20;;;;;;;23.42;14.05;;;15.00;99.90;;;;;;5032628;28;20073;-68
2022/10/16 07:53:48;;;;;;;22.98;14.70;;;15.20;99.90;;;;;;5033365;28;20432;-71
2022/10/16 07:56:17;;;;;;;25.25;15.27;;;15.40;99.90;;;;;;5033726;28;20076;-70
2022/10/16 07:58:44;;;;;;;22.73;13.73;;;15.70;99.90;;;;;;5033402;28;20519;-70
2022/10/16 08:01:13;;;;;;;24.25;14.35;;;15.90;99.90;;;;;;5031973;28;20068;-70
2022/10/16 08:03:43;;;;;;;23.10;13.65;;;16.10;99.90;;;;;;5034009;28;20048;-70
2022/10/16 08:06:11;;;;;;;29.90;14.23;;;16.20;99.90;;;;;;5035103;28;20029;-71
2022/10/16 08:08:39;;;;;;;24.98;13.52;;;16.40;99.90;;;;;;5034387;28;20076;-70
2022/10/16 08:11:07;;;;;;;19.92;11.68;;;16.60;99.90;;;;;;5033817;28;20065;-69
2022/10/16 08:13:34;;;;;;;20.83;13.40;;;16.80;99.90;;;;;;5032058;28;20054;-69
2022/10/16 08:16:03;;;;;;;22.95;14.45;;;16.70;99.90;;;;;;5033505;28;20045;-69
2022/10/16 08:18:30;;;;;;;23.30;13.85;;;16.80;99.90;;;;;;5029025;28;20037;-69
2022/10/16 08:20:59;;;;;;;19.25;11.45;;;16.90;99.90;;;;;;5032855;28;20038;-68
2022/10/16 08:23:27;;;;;;;18.73;11.07;;;16.90;99.90;;;;;;5032861;28;20069;-70
2022/10/16 08:25:57;;;;;;;15.65;11.63;;;16.80;99.90;;;;;;5018035;28;20073;-69
2022/10/16 08:28:24;;;;;;;18.38;12.27;;;16.90;99.90;;;;;;5013905;28;20042;-68
2022/10/16 08:30:52;;;;;;;19.88;13.63;;;16.90;99.90;;;;;;5022088;28;20116;-69
2022/10/16 08:33:19;;;;;;;20.55;13.07;;;16.90;99.90;;;;;;5034619;28;20045;-69
2022/10/16 08:35:53;;;;;;;20.30;12.60;;;16.90;99.90;;;;;;5033369;28;20389;-69
2022/10/16 08:38:21;;;;;;;19.65;12.43;;;16.90;99.90;;;;;;5035410;28;20099;-68
2022/10/16 08:40:49;;;;;;;18.95;12.80;;;17.00;99.90;;;;;;5037414;28;20037;-70
2022/10/16 08:43:36;;;;;;;20.02;12.07;;;17.10;99.90;;;;;;5038296;28;20096;-70
2022/10/16 08:46:17;;;;;;;16.95;11.48;;;17.20;99.90;;;;;;5027413;28;20049;-69
2022/10/16 08:48:47;;;;;;;18.17;11.85;;;17.30;99.90;;;;;;5034476;28;20116;-69
2022/10/16 08:51:21;;;;;;;18.13;11.20;;;17.30;99.90;;;;;;5028001;28;20045;-69
2022/10/16 08:53:54;;;;;;;23.05;14.05;;;17.40;99.90;;;;;;5048770;28;20038;-71
2022/10/16 08:56:22;;;;;;;27.23;14.18;;;17.50;99.90;;;;;;5038598;28;20060;-70
2022/10/16 08:58:52;;;;;;;17.30;11.45;;;17.50;99.90;;;;;;5033559;28;20041;-69
2022/10/16 09:01:22;;;;;;;24.48;12.82;;;17.60;99.90;;;;;;5036012;28;20124;-69
2022/10/16 09:04:24;;;;;;;24.98;12.90;;;17.80;99.90;;;;;;5035934;28;20046;-70
2022/10/16 09:06:57;;;;;;;21.05;11.25;;;17.90;99.90;;;;;;5034484;28;20069;-70
2022/10/16 09:10:00;;;;;;;21.55;13.10;;;17.90;99.90;;;;;;5035817;28;20145;-69
2022/10/16 09:12:36;;;;;;;17.33;10.18;;;18.00;99.90;;;;;;5042599;28;20088;-70
2022/10/16 09:15:16;;;;;;;16.05;10.95;;;18.00;99.90;;;;;;5024210;28;20064;-69
2022/10/16 09:17:51;;;;;;;23.88;11.38;;;18.10;99.90;;;;;;5012442;28;20147;-69
2022/10/16 09:20:31;;;;;;;20.65;10.48;;;18.20;99.90;;;;;;5016837;28;20034;-70
2022/10/16 09:23:17;;;;;;;21.27;11.77;;;18.30;99.90;;;;;;5015579;28;20046;-69
2022/10/16 09:25:48;;;;;;;21.75;12.57;;;18.40;99.90;;;;;;5017652;28;20054;-69
2022/10/16 09:28:16;;;;;;;20.38;12.23;;;18.50;99.90;;;;;;5016350;28;20072;-69
2022/10/16 09:30:48;;;;;;;19.05;12.50;;;18.50;99.90;;;;;;5017763;28;20052;-68
2022/10/16 09:33:16;;;;;;;20.58;12.82;;;18.50;99.90;;;;;;5016176;28;20056;-69
2022/10/16 09:35:46;;;;;;;19.02;12.30;;;18.60;99.90;;;;;;5015145;28;20069;-69
2022/10/16 09:38:24;;;;;;;19.83;12.60;;;18.70;99.90;;;;;;5017002;28;20050;-70
2022/10/16 09:40:51;;;;;;;18.08;12.13;;;18.80;99.90;;;;;;5016540;28;20487;-70
2022/10/16 09:43:27;;;;;;;20.98;10.85;;;18.80;99.90;;;;;;5017853;28;20042;-69
2022/10/16 09:46:07;;;;;;;14.23;10.52;;;18.90;99.90;;;;;;5015414;28;20102;-68
2022/10/16 09:48:38;;;;;;;20.67;12.40;;;19.00;99.90;;;;;;5017811;28;20477;-70
2022/10/16 09:51:14;;;;;;;17.20;10.63;;;19.10;99.90;;;;;;5017611;28;20038;-69
2022/10/16 09:53:48;;;;;;;22.17;12.30;;;19.20;99.90;;;;;;5018004;28;20070;-71
2022/10/16 09:56:23;;;;;;;19.30;13.10;;;19.30;99.90;;;;;;5019857;28;20052;-71
2022/10/16 09:58:52;;;;;;;19.45;12.65;;;19.40;99.90;;;;;;5016115;28;20042;-69
2022/10/16 10:01:23;;;;;;;22.45;15.25;;;19.50;99.90;;;;;;5015860;28;20472;-70
2022/10/16 10:03:52;;;;;;;18.25;14.55;;;19.60;99.90;;;;;;5015871;28;20233;-69
2022/10/16 10:06:26;;;;;;;21.55;14.88;;;19.70;99.90;;;;;;5017635;28;20041;-69
2022/10/16 10:08:56;;;;;;;27.58;14.65;;;19.70;99.90;;;;;;5014386;28;20048;-69
2022/10/16 10:11:45;;;;;;;21.77;15.30;;;19.70;99.90;;;;;;5015347;28;20118;-69
2022/10/16 10:14:27;;;;;;;28.63;17.63;;;19.80;99.90;;;;;;5027309;28;20099;-73
2022/10/16 10:17:12;;;;;;;25.10;17.75;;;19.90;99.90;;;;;;5036056;28;20068;-74
2022/10/16 10:19:41;;;;;;;23.65;15.88;;;20.00;99.90;;;;;;5032540;28;20045;-73
2022/10/16 10:22:18;;;;;;;21.75;15.15;;;20.10;99.90;;;;;;5035565;28;20068;-73
2022/10/16 10:24:55;;;;;;;24.70;15.30;;;20.10;99.90;;;;;;5036101;28;20069;-72
2022/10/16 10:27:31;;;;;;;24.95;14.80;;;20.10;99.90;;;;;;5030383;28;20099;-73
2022/10/16 10:30:07;;;;;;;24.85;13.93;;;20.10;99.90;;;;;;5034147;28;20041;-72
2022/10/16 10:32:42;;;;;;;24.23;15.10;;;20.20;99.90;;;;;;5034219;28;20087;-72
2022/10/16 10:35:17;;;;;;;23.92;16.40;;;20.30;99.90;;;;;;5034274;28;20134;-72
2022/10/16 10:38:03;;;;;;;17.75;12.77;;;20.30;99.90;;;;;;5035258;28;20195;-73
2022/10/16 10:40:41;;;;;;;22.17;14.70;;;20.40;99.50;;;;;;5035026;28;20041;-72
2022/10/16 10:43:20;;;;;;;31.25;20.08;;;20.60;99.90;;;;;;5034677;28;20055;-71
2022/10/16 10:45:49;;;;;;;46.28;36.78;;;20.80;99.30;;;;;;5034927;28;20045;-74
2022/10/16 10:48:30;;;;;;;19.83;14.15;;;20.80;97.90;;;;;;5033488;28;20053;-72
2022/10/16 10:51:02;;;;;;;20.98;14.48;;;20.80;97.40;;;;;;5035391;28;20049;-72
2022/10/16 10:53:42;;;;;;;19.50;15.10;;;20.80;97.50;;;;;;5035131;28;20142;-72
2022/10/16 10:56:23;;;;;;;21.95;14.70;;;20.80;97.80;;;;;;5034960;28;20543;-72
2022/10/16 10:59:11;;;;;;;22.13;13.88;;;20.70;99.10;;;;;;5035446;28;20065;-73
2022/10/16 11:01:48;;;;;;;20.60;15.07;;;20.70;99.40;;;;;;5034675;28;20095;-72
2022/10/16 11:04:44;;;;;;;26.15;15.55;;;20.80;99.30;;;;;;5035111;28;20107;-72
2022/10/16 11:07:18;;;;;;;18.27;15.25;;;20.90;98.70;;;;;;5035933;28;20049;-72
2022/10/16 11:09:48;;;;;;;21.00;14.48;;;21.00;97.20;;;;;;5035975;28;20122;-71
2022/10/16 11:12:19;;;;;;;19.40;15.32;;;21.00;96.30;;;;;;5035587;28;20065;-73
2022/10/16 11:14:53;;;;;;;18.38;14.45;;;21.10;94.50;;;;;;5037792;28;20103;-72
2022/10/16 11:17:28;;;;;;;19.42;15.27;;;21.10;92.30;;;;;;5038524;28;20065;-73
2022/10/16 11:20:02;;;;;;;18.83;15.38;;;21.20;91.30;;;;;;5039686;28;20377;-73
2022/10/16 11:22:35;;;;;;;16.88;12.73;;;21.20;91.50;;;;;;5038336;28;20129;-69
2022/10/16 11:25:13;;;;;;;16.48;12.25;;;21.20;91.10;;;;;;5035759;28;20071;-69
2022/10/16 11:27:44;;;;;;;16.75;12.02;;;21.40;90.60;;;;;;5033453;28;20053;-70
2022/10/16 11:30:17;;;;;;;18.83;13.10;;;21.40;90.60;;;;;;5034597;28;20042;-68
2022/10/16 11:32:57;;;;;;;19.90;14.90;;;21.50;90.80;;;;;;5034609;28;20120;-68
2022/10/16 11:35:35;;;;;;;24.00;18.23;;;21.50;91.30;;;;;;5035080;28;20045;-68
2022/10/16 11:38:05;;;;;;;22.35;18.35;;;21.50;91.90;;;;;;5035310;28;20136;-69
2022/10/16 11:40:34;;;;;;;19.02;14.40;;;21.50;91.80;;;;;;5034427;28;20087;-70
2022/10/16 11:43:14;;;;;;;18.98;13.60;;;21.60;91.80;;;;;;5035036;28;20049;-69
2022/10/16 11:45:46;;;;;;;17.73;14.10;;;21.60;91.30;;;;;;5034524;28;20041;-69
2022/10/16 11:48:22;;;;;;;16.05;12.75;;;21.70;90.80;;;;;;5032817;28;20045;-69
2022/10/16 11:50:54;;;;;;;16.10;12.75;;;21.70;90.60;;;;;;5034293;28;20072;-69
2022/10/16 11:53:32;;;;;;;18.80;13.38;;;21.60;90.20;;;;;;5033248;28;20037;-69
2022/10/16 11:56:00;;;;;;;18.92;12.77;;;21.50;89.50;;;;;;5034175;28;20576;-71
2022/10/16 11:58:34;;;;;;;16.23;12.60;;;21.50;90.10;;;;;;5034508;28;20042;-73
2022/10/16 12:01:11;;;;;;;20.75;14.32;;;21.50;90.30;;;;;;5033975;28;20052;-73
2022/10/16 12:03:45;;;;;;;15.77;12.57;;;21.60;90.50;;;;;;5032625;28;20072;-72
2022/10/16 12:06:28;;;;;;;17.20;13.10;;;21.70;90.40;;;;;;5032487;28;20048;-72
2022/10/16 12:08:56;;;;;;;28.73;20.90;;;21.70;90.10;;;;;;5033036;28;20051;-73
2022/10/16 12:11:35;;;;;;;22.27;12.55;;;21.70;90.30;;;;;;5033595;28;20055;-73
2022/10/16 12:14:08;;;;;;;17.63;13.65;;;21.80;88.70;;;;;;5032792;28;20076;-72
2022/10/16 12:16:39;;;;;;;18.58;14.82;;;21.80;89.00;;;;;;5033708;28;20132;-73
2022/10/16 12:19:14;;;;;;;19.38;13.85;;;21.80;89.20;;;;;;5033563;28;20493;-69
2022/10/16 12:21:44;;;;;;;24.13;14.23;;;21.90;89.00;;;;;;5033621;28;20033;-72
2022/10/16 12:24:25;;;;;;;18.83;12.10;;;21.90;88.50;;;;;;5033130;28;20409;-73
2022/10/16 12:26:53;;;;;;;18.48;15.75;;;21.90;88.20;;;;;;5033424;28;20069;-73
2022/10/16 12:29:31;;;;;;;20.30;15.75;;;22.00;88.50;;;;;;5033002;28;20065;-72
2022/10/16 12:31:58;;;;;;;19.02;13.93;;;22.00;89.30;;;;;;5033366;28;20091;-74
2022/10/16 12:34:30;;;;;;;13.43;11.98;;;22.00;88.90;;;;;;5031524;28;20184;-73
2022/10/16 12:37:14;;;;;;;13.77;12.25;;;22.00;86.70;;;;;;5032990;28;20049;-72
2022/10/16 12:39:42;;;;;;;15.82;12.13;;;22.00;86.60;;;;;;5033170;28;20045;-73
2022/10/16 12:42:24;;;;;;;15.23;11.60;;;22.00;86.00;;;;;;5033635;28;20481;-73
2022/10/16 12:44:51;;;;;;;14.88;11.40;;;22.00;85.80;;;;;;5034212;28;20107;-72
2022/10/16 12:47:24;;;;;;;21.48;17.42;;;22.00;86.00;;;;;;5037578;28;20053;-70
2022/10/16 12:49:53;;;;;;;17.70;13.05;;;22.10;86.30;;;;;;5038070;28;20080;-70
2022/10/16 12:52:38;;;;;;;13.70;11.98;;;22.00;85.80;;;;;;5037709;28;20122;-69